Time;durP1;ratioP1;P1;durP2;ratioP2;P2;SDS_P1;SDS_P2;PMS_P1;PMS_P2;Temp;Humidity;BMP_temperature;BMP_pressure;BME280_temperature;BME280_humidity;BME280_pressure;Samples;Min_cycle;Max_cycle;Signal;HPM_P1;HPM_P2
2023/10/30 00:01:47;;;;;;;3.83;0.80;;;10.10;99.90;;;;;;5071426;28;20113;-62
2023/10/30 00:04:14;;;;;;;3.33;0.95;;;10.10;99.90;;;;;;5071475;28;20036;-62
2023/10/30 00:06:40;;;;;;;4.22;1.02;;;10.10;99.90;;;;;;5070960;28;20048;-62
2023/10/30 00:09:05;;;;;;;3.00;0.68;;;10.10;99.90;;;;;;5052580;28;20887;-62
2023/10/30 00:11:31;;;;;;;4.35;0.90;;;10.00;99.90;;;;;;5070421;28;20452;-63
2023/10/30 00:13:57;;;;;;;5.32;1.20;;;10.00;99.90;;;;;;5053150;28;20441;-62
2023/10/30 00:16:22;;;;;;;4.13;1.10;;;10.00;99.90;;;;;;5053706;28;20465;-62
2023/10/30 00:18:48;;;;;;;3.47;1.08;;;10.00;99.90;;;;;;5051432;28;20056;-62
2023/10/30 00:21:14;;;;;;;2.95;0.90;;;10.00;99.90;;;;;;5053490;28;20060;-62
2023/10/30 00:23:40;;;;;;;4.05;1.00;;;10.00;99.90;;;;;;5070947;28;20082;-62
2023/10/30 00:26:06;;;;;;;6.10;1.33;;;10.00;99.90;;;;;;5069823;28;20080;-62
2023/10/30 00:28:34;;;;;;;3.47;1.02;;;10.00;99.90;;;;;;5069827;28;20048;-62
2023/10/30 00:31:00;;;;;;;4.70;1.20;;;9.90;99.90;;;;;;5064119;28;20119;-62
2023/10/30 00:33:26;;;;;;;5.85;1.17;;;9.90;99.90;;;;;;5080929;28;20048;-62
2023/10/30 00:35:52;;;;;;;4.45;1.42;;;9.90;99.90;;;;;;5070027;28;20055;-63
2023/10/30 00:38:17;;;;;;;4.18;1.17;;;9.90;99.90;;;;;;5051727;28;20468;-62
2023/10/30 00:40:43;;;;;;;3.95;0.90;;;9.90;99.90;;;;;;5069687;28;20472;-62
2023/10/30 00:43:10;;;;;;;4.93;1.00;;;9.90;99.90;;;;;;5069396;28;20116;-62
2023/10/30 00:45:35;;;;;;;4.63;1.27;;;9.90;99.90;;;;;;5036302;28;20060;-62
2023/10/30 00:48:01;;;;;;;3.97;1.10;;;9.80;99.90;;;;;;5070572;28;20042;-63
2023/10/30 00:50:27;;;;;;;3.88;1.08;;;9.80;99.90;;;;;;5052389;28;20093;-62
2023/10/30 00:52:52;;;;;;;3.97;1.10;;;9.80;99.90;;;;;;5052944;28;20411;-62
2023/10/30 00:55:18;;;;;;;15.60;2.67;;;9.80;99.90;;;;;;5051348;28;20048;-62
2023/10/30 00:57:44;;;;;;;4.70;1.45;;;9.80;99.90;;;;;;5052388;28;20036;-62
2023/10/30 01:00:10;;;;;;;4.20;1.70;;;9.80;99.90;;;;;;5052251;28;20044;-62
2023/10/30 01:02:36;;;;;;;4.95;1.30;;;9.80;99.90;;;;;;5068668;28;20165;-62
2023/10/30 01:05:02;;;;;;;4.50;1.08;;;9.70;99.90;;;;;;5055320;28;20056;-62
2023/10/30 01:07:29;;;;;;;3.72;1.20;;;9.70;99.90;;;;;;5072941;28;20423;-62
2023/10/30 01:09:55;;;;;;;5.60;1.40;;;9.70;99.90;;;;;;5082652;28;20082;-62
2023/10/30 01:12:21;;;;;;;3.38;1.15;;;9.70;99.90;;;;;;5051798;28;20044;-63
2023/10/30 01:14:47;;;;;;;4.60;1.50;;;9.70;99.90;;;;;;5070251;28;20051;-62
2023/10/30 01:17:13;;;;;;;5.22;1.30;;;9.70;99.90;;;;;;5035505;28;20407;-62
2023/10/30 01:19:38;;;;;;;4.97;1.30;;;9.70;99.90;;;;;;5052608;28;20037;-63
2023/10/30 01:22:04;;;;;;;4.82;1.10;;;9.70;99.90;;;;;;5051912;28;20032;-62
2023/10/30 01:24:30;;;;;;;6.50;1.17;;;9.70;99.90;;;;;;5052658;28;20095;-62
2023/10/30 01:26:56;;;;;;;3.65;1.10;;;9.70;99.90;;;;;;5068941;28;20047;-62
2023/10/30 01:29:21;;;;;;;6.20;1.30;;;9.70;99.90;;;;;;5070067;28;20040;-62
2023/10/30 01:31:47;;;;;;;3.72;1.40;;;9.80;99.90;;;;;;5052169;28;20033;-62
2023/10/30 01:34:12;;;;;;;5.03;1.15;;;9.80;99.90;;;;;;5069789;28;21784;-62
2023/10/30 01:36:38;;;;;;;5.07;1.42;;;9.80;99.90;;;;;;5070510;28;20037;-62
2023/10/30 01:39:04;;;;;;;6.20;1.35;;;9.80;99.90;;;;;;5051456;28;20051;-62
2023/10/30 01:41:29;;;;;;;5.32;1.55;;;9.80;99.90;;;;;;5069907;28;20055;-62
2023/10/30 01:43:55;;;;;;;6.35;1.30;;;9.80;99.90;;;;;;5052109;28;20044;-62
2023/10/30 01:46:20;;;;;;;5.35;1.17;;;9.80;99.90;;;;;;5069371;28;20044;-62
2023/10/30 01:48:47;;;;;;;6.00;1.52;;;9.80;99.90;;;;;;5052446;28;20171;-62
2023/10/30 01:51:16;;;;;;;4.55;1.33;;;9.80;99.90;;;;;;5053245;28;20417;-62
2023/10/30 01:53:42;;;;;;;5.07;1.38;;;9.80;99.90;;;;;;5058028;28;20040;-62
2023/10/30 01:56:08;;;;;;;6.93;1.40;;;9.80;99.90;;;;;;5056030;28;20133;-62
2023/10/30 01:58:34;;;;;;;8.95;1.67;;;9.80;99.90;;;;;;5054776;28;20495;-62
2023/10/30 02:01:01;;;;;;;4.78;1.40;;;9.80;99.90;;;;;;5073487;28;20055;-62
2023/10/30 02:03:26;;;;;;;10.77;1.50;;;9.80;99.90;;;;;;5055388;28;20037;-62
2023/10/30 02:05:54;;;;;;;5.32;1.10;;;9.80;99.90;;;;;;5073689;28;20064;-62
2023/10/30 02:08:20;;;;;;;7.85;1.63;;;9.70;99.90;;;;;;5056041;28;20407;-62
2023/10/30 02:10:46;;;;;;;6.63;1.50;;;9.80;99.90;;;;;;5054669;28;20032;-62
2023/10/30 02:13:11;;;;;;;5.22;1.45;;;9.70;99.90;;;;;;5055414;28;20490;-62
2023/10/30 02:15:37;;;;;;;5.57;1.30;;;9.70;99.90;;;;;;5055792;28;20036;-62
2023/10/30 02:18:03;;;;;;;7.78;1.30;;;9.70;99.90;;;;;;5055749;28;20535;-62
2023/10/30 02:20:29;;;;;;;4.85;1.30;;;9.70;99.90;;;;;;5055565;28;20040;-63
2023/10/30 02:22:55;;;;;;;11.48;1.52;;;9.70;99.90;;;;;;5061400;28;20119;-62
2023/10/30 02:25:24;;;;;;;9.27;2.53;;;9.70;99.90;;;;;;5055410;28;20044;-62
2023/10/30 02:27:51;;;;;;;8.68;1.92;;;9.70;99.90;;;;;;5073395;28;20044;-62
2023/10/30 02:30:17;;;;;;;7.53;1.55;;;9.70;99.90;;;;;;5062177;28;20070;-63
2023/10/30 02:32:44;;;;;;;6.30;1.30;;;9.70;99.90;;;;;;5071672;28;20036;-62
2023/10/30 02:35:15;;;;;;;4.65;1.27;;;9.70;99.90;;;;;;5055295;28;20675;-62
2023/10/30 02:37:41;;;;;;;7.05;1.50;;;9.70;99.90;;;;;;5052036;28;20044;-62
2023/10/30 02:40:07;;;;;;;5.32;1.23;;;9.70;99.90;;;;;;5055475;28;20040;-62
2023/10/30 02:42:33;;;;;;;8.45;1.50;;;9.70;99.90;;;;;;5054838;28;20101;-62
2023/10/30 02:44:59;;;;;;;7.07;1.40;;;9.70;99.90;;;;;;5071348;28;20028;-62
2023/10/30 02:47:25;;;;;;;7.53;1.42;;;9.70;99.90;;;;;;5071726;28;20470;-62
2023/10/30 02:49:52;;;;;;;9.15;1.63;;;9.80;99.90;;;;;;5054677;28;20098;-63
2023/10/30 02:52:18;;;;;;;7.95;1.42;;;9.80;99.90;;;;;;5054169;28;20040;-62
2023/10/30 02:54:44;;;;;;;9.88;1.90;;;9.80;99.90;;;;;;5054085;28;20036;-62
2023/10/30 02:57:10;;;;;;;9.40;2.35;;;9.80;99.90;;;;;;5082731;28;20445;-62
2023/10/30 02:59:36;;;;;;;7.03;1.45;;;9.80;99.90;;;;;;5072499;28;20049;-62
2023/10/30 03:02:02;;;;;;;8.23;1.25;;;9.80;99.90;;;;;;5051807;28;20032;-62
2023/10/30 03:04:29;;;;;;;11.73;2.35;;;9.80;99.90;;;;;;5054717;28;20038;-62
2023/10/30 03:06:58;;;;;;;9.07;1.60;;;9.80;99.90;;;;;;5072046;28;20460;-62
2023/10/30 03:09:25;;;;;;;4.68;1.67;;;9.80;99.90;;;;;;5052889;28;20100;-62
2023/10/30 03:11:50;;;;;;;7.85;1.83;;;9.80;99.90;;;;;;5070451;28;20044;-62
2023/10/30 03:14:16;;;;;;;9.13;1.67;;;9.90;99.90;;;;;;5054752;28;20089;-62
2023/10/30 03:16:42;;;;;;;9.52;1.45;;;9.80;99.90;;;;;;5060871;28;20044;-62
2023/10/30 03:19:08;;;;;;;5.50;1.10;;;9.80;99.90;;;;;;5074501;28;20127;-62
2023/10/30 03:21:34;;;;;;;8.90;1.50;;;9.90;99.90;;;;;;5074484;28;20043;-62
2023/10/30 03:23:59;;;;;;;8.32;1.85;;;9.80;99.90;;;;;;5074046;28;20040;-62
2023/10/30 03:26:25;;;;;;;8.23;1.63;;;9.80;99.90;;;;;;5068684;28;20411;-62
2023/10/30 03:28:51;;;;;;;9.57;1.77;;;9.80;99.90;;;;;;5053981;28;20484;-62
2023/10/30 03:31:17;;;;;;;7.43;1.52;;;9.80;99.90;;;;;;5054377;28;20040;-62
2023/10/30 03:33:42;;;;;;;10.05;1.70;;;9.80;99.90;;;;;;5072039;28;20040;-62
2023/10/30 03:36:08;;;;;;;7.32;1.70;;;9.80;99.90;;;;;;5054299;28;20039;-62
2023/10/30 03:38:34;;;;;;;7.80;1.10;;;9.80;99.90;;;;;;5051700;28;20044;-62
2023/10/30 03:41:00;;;;;;;7.72;1.52;;;9.80;99.90;;;;;;5053752;28;20044;-62
2023/10/30 03:43:25;;;;;;;7.13;1.80;;;9.80;99.90;;;;;;5052782;28;20131;-62
2023/10/30 03:45:52;;;;;;;8.10;1.48;;;9.90;99.90;;;;;;5069392;28;20136;-62
2023/10/30 03:48:18;;;;;;;5.30;1.30;;;9.90;99.90;;;;;;5051764;28;20041;-62
2023/10/30 03:50:43;;;;;;;5.97;1.55;;;9.90;99.90;;;;;;5071749;28;20384;-62
2023/10/30 03:53:09;;;;;;;12.15;1.80;;;9.90;99.90;;;;;;5070184;28;20403;-62
2023/10/30 03:55:35;;;;;;;7.40;1.70;;;9.90;99.90;;;;;;5072503;28;20119;-62
2023/10/30 03:58:02;;;;;;;10.73;1.60;;;9.80;99.90;;;;;;5071343;28;20040;-62
2023/10/30 04:00:28;;;;;;;9.30;1.70;;;9.90;99.90;;;;;;5070355;28;20109;-62
2023/10/30 04:02:53;;;;;;;6.00;1.42;;;9.90;99.90;;;;;;5063109;28;20040;-62
2023/10/30 04:05:19;;;;;;;8.10;1.60;;;9.90;99.90;;;;;;5091473;28;20135;-62
2023/10/30 04:07:45;;;;;;;8.65;1.60;;;9.90;99.90;;;;;;5070510;28;20132;-62
2023/10/30 04:10:10;;;;;;;13.43;2.10;;;9.90;99.90;;;;;;5052190;28;20071;-63
2023/10/30 04:12:36;;;;;;;8.25;1.60;;;9.90;99.90;;;;;;5053628;28;20040;-62
2023/10/30 04:15:02;;;;;;;10.50;1.67;;;9.90;99.90;;;;;;5053379;28;20044;-62
2023/10/30 04:17:28;;;;;;;6.80;1.30;;;9.80;99.90;;;;;;5053216;28;20036;-62
2023/10/30 04:19:53;;;;;;;13.70;1.80;;;9.80;99.90;;;;;;5070346;28;20036;-62
2023/10/30 04:22:19;;;;;;;6.88;1.48;;;9.80;99.90;;;;;;5070878;28;20478;-62
2023/10/30 04:24:45;;;;;;;7.45;1.50;;;9.80;99.90;;;;;;5053107;28;20395;-62
2023/10/30 04:27:10;;;;;;;8.27;1.75;;;9.80;99.90;;;;;;5052791;28;20085;-62
2023/10/30 04:29:36;;;;;;;6.05;1.60;;;9.80;99.90;;;;;;5053277;28;20052;-62
2023/10/30 04:32:02;;;;;;;6.13;1.77;;;9.80;99.90;;;;;;5035198;28;20052;-62
2023/10/30 04:34:28;;;;;;;7.53;1.33;;;9.80;99.90;;;;;;5036017;28;20067;-62
2023/10/30 04:36:54;;;;;;;10.25;1.95;;;9.70;99.90;;;;;;5070501;28;20115;-62
2023/10/30 04:39:20;;;;;;;8.43;1.70;;;9.80;99.90;;;;;;5052744;28;20552;-62
2023/10/30 04:41:45;;;;;;;9.60;1.50;;;9.70;99.90;;;;;;5077038;28;20502;-62
2023/10/30 04:44:11;;;;;;;13.65;2.72;;;9.70;99.90;;;;;;5052793;28;20066;-62
2023/10/30 04:46:37;;;;;;;10.82;2.33;;;9.70;99.90;;;;;;5053017;28;20036;-62
2023/10/30 04:49:02;;;;;;;5.10;1.40;;;9.70;99.90;;;;;;5059781;28;20047;-62
2023/10/30 04:51:28;;;;;;;8.65;1.85;;;9.70;99.90;;;;;;5056668;28;20032;-62
2023/10/30 04:53:54;;;;;;;7.72;1.55;;;9.70;99.90;;;;;;5046160;28;20126;-62
2023/10/30 04:56:19;;;;;;;8.05;1.45;;;9.70;99.90;;;;;;5070376;28;20051;-62
2023/10/30 04:58:45;;;;;;;10.18;2.00;;;9.70;99.90;;;;;;5052729;28;20119;-62
2023/10/30 05:01:12;;;;;;;9.32;1.50;;;9.70;99.90;;;;;;5070331;28;20557;-62
2023/10/30 05:03:39;;;;;;;5.32;1.25;;;9.70;99.90;;;;;;5051883;28;20048;-62
2023/10/30 05:06:05;;;;;;;8.60;2.17;;;9.60;99.90;;;;;;5051758;28;20071;-62
2023/10/30 05:08:31;;;;;;;7.38;1.42;;;9.60;99.90;;;;;;5051954;28;20052;-62
2023/10/30 05:10:59;;;;;;;7.07;1.58;;;9.60;99.90;;;;;;5052569;28;20075;-63
2023/10/30 05:13:25;;;;;;;8.20;1.58;;;9.60;99.90;;;;;;5051918;28;20082;-62
2023/10/30 05:15:50;;;;;;;10.25;1.67;;;9.60;99.90;;;;;;5051915;28;20045;-62
2023/10/30 05:18:21;;;;;;;12.32;1.77;;;9.60;99.90;;;;;;5070289;28;20129;-62
2023/10/30 05:20:47;;;;;;;7.45;1.45;;;9.60;99.90;;;;;;5069999;28;20059;-63
2023/10/30 05:23:13;;;;;;;7.15;1.65;;;9.60;99.90;;;;;;5052224;28;20050;-62
2023/10/30 05:25:39;;;;;;;7.65;1.45;;;9.60;99.90;;;;;;5068851;28;20036;-62
2023/10/30 05:28:04;;;;;;;10.18;1.80;;;9.50;99.90;;;;;;5052046;28;20040;-62
2023/10/30 05:30:30;;;;;;;9.23;2.40;;;9.50;99.90;;;;;;5052076;28;20044;-62
2023/10/30 05:32:56;;;;;;;5.78;1.27;;;9.50;99.90;;;;;;5035383;28;20048;-62
2023/10/30 05:35:22;;;;;;;8.73;1.63;;;9.50;99.90;;;;;;5069933;28;20033;-62
2023/10/30 05:37:47;;;;;;;10.05;1.30;;;9.50;99.90;;;;;;5069858;28;20043;-62
2023/10/30 05:40:13;;;;;;;12.82;1.83;;;9.50;99.90;;;;;;5055184;28;20062;-62
2023/10/30 05:42:39;;;;;;;7.78;1.73;;;9.50;99.90;;;;;;5082199;28;20044;-62
2023/10/30 05:45:05;;;;;;;8.57;1.50;;;9.50;99.90;;;;;;5050299;28;20083;-62
2023/10/30 05:47:31;;;;;;;7.88;1.20;;;9.50;99.90;;;;;;5069379;28;20040;-62
2023/10/30 05:49:57;;;;;;;8.52;1.42;;;9.50;99.90;;;;;;5069140;28;20042;-62
2023/10/30 05:52:23;;;;;;;8.43;1.70;;;9.50;99.90;;;;;;5051137;28;20491;-62
2023/10/30 05:54:48;;;;;;;6.57;1.40;;;9.50;99.90;;;;;;5068966;28;20060;-62
2023/10/30 05:57:15;;;;;;;6.15;1.30;;;9.50;99.90;;;;;;5051337;28;20037;-62
2023/10/30 05:59:41;;;;;;;9.77;1.73;;;9.50;99.90;;;;;;5051100;28;20055;-62
2023/10/30 06:02:07;;;;;;;9.35;1.70;;;9.40;99.90;;;;;;5050663;28;20110;-62
2023/10/30 06:04:32;;;;;;;11.20;1.50;;;9.50;99.90;;;;;;5052262;28;20040;-62
2023/10/30 06:06:58;;;;;;;8.82;1.33;;;9.40;99.90;;;;;;5050596;28;20424;-62
2023/10/30 06:09:26;;;;;;;8.85;1.60;;;9.50;99.90;;;;;;5051266;28;20102;-62
2023/10/30 06:11:52;;;;;;;8.75;2.28;;;9.50;99.90;;;;;;5051386;28;20068;-62
2023/10/30 06:14:18;;;;;;;10.18;1.60;;;9.50;99.90;;;;;;5069584;28;20025;-62
2023/10/30 06:16:45;;;;;;;10.15;1.80;;;9.50;99.90;;;;;;5050873;28;20039;-62
2023/10/30 06:19:11;;;;;;;7.20;1.30;;;9.50;99.90;;;;;;5069024;28;20083;-62
2023/10/30 06:21:39;;;;;;;6.15;1.52;;;9.50;99.90;;;;;;5051641;28;20045;-62
2023/10/30 06:24:08;;;;;;;6.28;1.35;;;9.50;99.90;;;;;;5051421;28;20040;-62
2023/10/30 06:26:34;;;;;;;12.18;2.10;;;9.50;99.90;;;;;;5069699;28;20043;-62
2023/10/30 06:29:00;;;;;;;8.95;1.40;;;9.50;99.90;;;;;;5051325;28;20495;-62
2023/10/30 06:31:26;;;;;;;8.05;1.50;;;9.50;99.90;;;;;;5067210;28;20040;-62
2023/10/30 06:33:52;;;;;;;9.40;1.60;;;9.50;99.90;;;;;;5068481;28;20500;-62
2023/10/30 06:36:17;;;;;;;9.10;2.17;;;9.60;99.90;;;;;;5053004;28;20049;-62
2023/10/30 06:38:43;;;;;;;11.02;2.50;;;9.60;99.90;;;;;;5054766;28;20119;-62
2023/10/30 06:41:08;;;;;;;9.32;1.60;;;9.60;99.90;;;;;;5072810;28;20488;-62
2023/10/30 06:43:34;;;;;;;6.03;1.55;;;9.60;99.90;;;;;;5054218;28;20029;-62
2023/10/30 06:46:04;;;;;;;7.18;1.95;;;9.60;99.90;;;;;;5054659;28;20040;-61
2023/10/30 06:48:30;;;;;;;6.43;1.50;;;9.70;99.90;;;;;;5053344;28;20111;-61
2023/10/30 06:50:56;;;;;;;6.05;1.60;;;9.70;99.90;;;;;;5054354;28;20044;-61
2023/10/30 06:53:25;;;;;;;7.18;1.50;;;9.70;99.90;;;;;;5053634;28;20043;-62
2023/10/30 06:55:52;;;;;;;6.72;1.80;;;9.80;99.90;;;;;;5072617;28;20086;-61
2023/10/30 06:58:18;;;;;;;10.57;1.60;;;9.80;99.90;;;;;;5054364;28;20037;-61
2023/10/30 07:00:44;;;;;;;12.40;1.80;;;9.80;99.90;;;;;;5053594;28;20047;-62
2023/10/30 07:03:10;;;;;;;10.40;1.65;;;9.90;99.90;;;;;;5071608;28;20479;-61
2023/10/30 07:05:35;;;;;;;6.70;1.30;;;9.90;99.90;;;;;;5054409;28;20044;-62
2023/10/30 07:08:01;;;;;;;7.18;1.38;;;9.90;99.90;;;;;;5053983;28;20056;-62
2023/10/30 07:10:27;;;;;;;10.02;2.08;;;10.00;99.90;;;;;;5052578;28;20469;-61
2023/10/30 07:12:53;;;;;;;6.45;1.50;;;10.00;99.90;;;;;;5072423;28;20029;-61
2023/10/30 07:15:20;;;;;;;11.40;1.70;;;10.00;99.90;;;;;;5052069;28;20083;-62
2023/10/30 07:17:47;;;;;;;8.70;2.03;;;10.10;99.90;;;;;;5053841;28;20123;-62
2023/10/30 07:20:13;;;;;;;8.20;1.70;;;10.00;99.90;;;;;;5054375;28;20550;-61
2023/10/30 07:22:39;;;;;;;6.13;1.60;;;10.10;99.90;;;;;;5054191;28;20036;-62
2023/10/30 07:25:06;;;;;;;5.45;1.40;;;10.10;99.90;;;;;;5054270;28;20494;-62
2023/10/30 07:27:33;;;;;;;8.95;1.20;;;10.20;99.90;;;;;;5072182;28;20094;-62
2023/10/30 07:29:59;;;;;;;10.38;1.55;;;10.20;99.90;;;;;;5050528;28;20048;-61
2023/10/30 07:32:25;;;;;;;6.85;1.38;;;10.30;99.90;;;;;;5071527;28;20036;-62
2023/10/30 07:34:51;;;;;;;9.40;1.63;;;10.30;99.90;;;;;;5072103;28;20064;-62
2023/10/30 07:37:16;;;;;;;7.93;1.88;;;10.40;99.90;;;;;;5035014;28;20377;-62
2023/10/30 07:39:43;;;;;;;8.82;1.60;;;10.40;99.90;;;;;;5070108;28;20044;-62
2023/10/30 07:42:09;;;;;;;9.15;1.50;;;10.50;99.90;;;;;;5070737;28;20119;-62
2023/10/30 07:44:36;;;;;;;7.05;1.60;;;10.50;99.90;;;;;;5053044;28;20430;-61
2023/10/30 07:47:02;;;;;;;7.25;1.60;;;10.60;99.90;;;;;;5052046;28;20047;-62
2023/10/30 07:49:28;;;;;;;11.43;1.60;;;10.60;99.90;;;;;;5054365;28;20045;-62
2023/10/30 07:51:53;;;;;;;9.60;1.83;;;10.70;99.90;;;;;;5092241;28;20039;-61
2023/10/30 07:54:19;;;;;;;7.50;1.70;;;10.70;99.90;;;;;;5087501;28;20068;-62
2023/10/30 07:56:45;;;;;;;9.70;1.90;;;10.80;99.90;;;;;;5053280;28;20500;-61
2023/10/30 07:59:10;;;;;;;9.18;1.80;;;10.80;99.90;;;;;;5053382;28;20036;-62
2023/10/30 08:01:36;;;;;;;7.70;1.27;;;10.90;99.90;;;;;;5071181;28;20040;-62
2023/10/30 08:04:02;;;;;;;8.13;1.67;;;10.90;99.90;;;;;;5071578;28;20145;-62
2023/10/30 08:06:27;;;;;;;10.20;1.70;;;10.90;99.90;;;;;;5052807;28;20416;-62
2023/10/30 08:08:53;;;;;;;11.75;1.90;;;11.00;99.90;;;;;;5071281;28;20143;-62
2023/10/30 08:11:19;;;;;;;10.15;1.50;;;11.10;99.90;;;;;;5071539;28;20044;-62
2023/10/30 08:13:45;;;;;;;7.97;1.40;;;11.10;99.90;;;;;;5070878;28;20037;-62
2023/10/30 08:16:11;;;;;;;8.25;1.70;;;11.20;99.90;;;;;;5070913;28;20040;-62
2023/10/30 08:18:38;;;;;;;10.43;1.75;;;11.20;99.90;;;;;;5053113;28;20055;-62
2023/10/30 08:21:04;;;;;;;8.05;1.70;;;11.30;99.90;;;;;;5053189;28;20123;-62
2023/10/30 08:23:30;;;;;;;9.77;1.52;;;11.40;99.90;;;;;;5053331;28;20101;-61
2023/10/30 08:25:56;;;;;;;10.85;1.88;;;11.50;99.90;;;;;;5052810;28;20048;-62
2023/10/30 08:28:22;;;;;;;5.88;1.45;;;11.60;99.90;;;;;;5052978;28;20111;-62
2023/10/30 08:30:47;;;;;;;10.07;1.77;;;11.70;99.90;;;;;;5069131;28;20044;-62
2023/10/30 08:33:13;;;;;;;10.38;1.90;;;11.70;99.90;;;;;;5068625;28;20038;-61
2023/10/30 08:35:39;;;;;;;7.45;1.60;;;11.80;99.90;;;;;;5049833;28;20487;-62
2023/10/30 08:38:05;;;;;;;8.43;1.90;;;11.80;99.90;;;;;;5070107;28;20086;-62
2023/10/30 08:40:30;;;;;;;9.40;1.70;;;11.90;99.90;;;;;;5070615;28;20040;-62
2023/10/30 08:42:56;;;;;;;11.23;1.90;;;12.00;99.90;;;;;;5070059;28;20093;-62
2023/10/30 08:45:22;;;;;;;8.43;1.73;;;12.10;99.90;;;;;;5070246;28;20422;-61
2023/10/30 08:47:48;;;;;;;10.50;1.55;;;12.20;99.90;;;;;;5051820;28;20067;-61
2023/10/30 08:50:14;;;;;;;9.85;2.00;;;12.40;99.90;;;;;;5070657;28;20037;-62
2023/10/30 08:52:40;;;;;;;7.78;1.67;;;12.40;99.90;;;;;;5051902;28;20503;-62
2023/10/30 08:55:07;;;;;;;9.57;2.20;;;12.60;99.90;;;;;;5070167;28;20273;-62
2023/10/30 08:57:32;;;;;;;6.65;1.77;;;12.70;99.90;;;;;;5035282;28;20051;-61
2023/10/30 08:59:58;;;;;;;9.02;1.52;;;12.80;99.90;;;;;;5065390;28;20464;-62
2023/10/30 09:02:24;;;;;;;7.80;1.38;;;13.00;99.90;;;;;;5069635;28;20054;-62
2023/10/30 09:04:49;;;;;;;12.50;2.28;;;13.20;99.90;;;;;;5054608;28;20037;-62
2023/10/30 09:07:16;;;;;;;5.40;1.30;;;13.30;99.90;;;;;;5069068;28;20048;-61
2023/10/30 09:09:42;;;;;;;8.60;1.73;;;13.40;99.90;;;;;;5051994;28;20079;-62
2023/10/30 09:12:08;;;;;;;10.00;2.28;;;13.60;99.90;;;;;;5051537;28;20116;-62
2023/10/30 09:14:34;;;;;;;8.85;1.73;;;13.80;99.90;;;;;;5049057;28;20119;-62
2023/10/30 09:17:00;;;;;;;8.18;1.95;;;13.90;99.90;;;;;;5050400;28;20040;-62
2023/10/30 09:19:26;;;;;;;10.35;1.88;;;14.00;99.90;;;;;;5051906;28;20059;-62
2023/10/30 09:21:52;;;;;;;8.50;1.92;;;14.20;99.90;;;;;;5052305;28;20044;-61
2023/10/30 09:24:18;;;;;;;7.68;1.50;;;14.30;99.90;;;;;;5070566;28;20119;-62
2023/10/30 09:26:43;;;;;;;8.95;1.50;;;14.40;99.90;;;;;;5069804;28;20291;-62
2023/10/30 09:29:09;;;;;;;9.63;1.65;;;14.40;99.90;;;;;;5051468;28;20456;-62
2023/10/30 09:31:35;;;;;;;8.80;1.58;;;14.60;99.90;;;;;;5069517;28;20071;-62
2023/10/30 09:34:01;;;;;;;6.00;1.30;;;14.80;99.90;;;;;;5051962;28;20060;-62
2023/10/30 09:36:27;;;;;;;8.35;1.70;;;14.90;99.90;;;;;;5066872;28;20056;-62
2023/10/30 09:38:53;;;;;;;10.50;2.00;;;14.80;99.90;;;;;;5051412;28;20048;-62
2023/10/30 09:41:19;;;;;;;8.60;1.77;;;14.50;99.90;;;;;;5069721;28;20041;-62
2023/10/30 09:43:49;;;;;;;9.43;2.03;;;14.20;99.90;;;;;;5069449;28;20037;-61
2023/10/30 09:46:16;;;;;;;8.65;1.80;;;14.00;99.90;;;;;;5069127;28;20037;-62
2023/10/30 09:48:44;;;;;;;7.97;1.33;;;13.80;99.90;;;;;;5051622;28;20041;-62
2023/10/30 09:51:11;;;;;;;9.90;1.50;;;13.70;99.90;;;;;;5069555;28;20399;-62
2023/10/30 09:53:37;;;;;;;4.53;1.45;;;13.50;99.90;;;;;;5051017;28;20051;-61
2023/10/30 09:56:06;;;;;;;8.70;2.10;;;13.40;99.90;;;;;;5051029;28;20112;-62
2023/10/30 09:58:32;;;;;;;10.13;1.80;;;13.30;99.90;;;;;;5069100;28;20051;-61
2023/10/30 10:00:59;;;;;;;6.30;1.50;;;13.20;99.90;;;;;;5069513;28;20037;-62
2023/10/30 10:03:25;;;;;;;8.85;1.95;;;13.20;99.90;;;;;;5051407;28;20503;-61
2023/10/30 10:05:58;;;;;;;8.25;1.90;;;13.10;99.90;;;;;;5050826;28;20084;-61
2023/10/30 10:08:25;;;;;;;7.40;1.63;;;13.00;99.90;;;;;;5068957;28;20037;-61
2023/10/30 10:10:59;;;;;;;10.02;2.30;;;12.90;99.90;;;;;;5070481;28;20036;-61
2023/10/30 10:13:26;;;;;;;7.18;1.60;;;12.90;99.90;;;;;;5073428;28;20032;-61
2023/10/30 10:15:52;;;;;;;11.13;2.20;;;13.10;99.90;;;;;;5073139;28;20483;-62
2023/10/30 10:18:30;;;;;;;10.40;2.08;;;13.20;99.90;;;;;;5054786;28;20044;-61
2023/10/30 10:20:56;;;;;;;12.93;1.80;;;13.30;99.90;;;;;;5072356;28;20040;-61
2023/10/30 10:23:22;;;;;;;6.38;1.80;;;13.30;99.90;;;;;;5055040;28;20510;-62
2023/10/30 10:25:55;;;;;;;6.00;1.33;;;13.30;99.90;;;;;;5072852;28;20055;-62
2023/10/30 10:28:23;;;;;;;11.05;1.65;;;13.30;99.90;;;;;;5072694;28;20040;-61
2023/10/30 10:30:48;;;;;;;7.35;1.50;;;13.30;99.90;;;;;;5057722;28;20059;-61
2023/10/30 10:33:14;;;;;;;9.27;1.77;;;13.30;99.90;;;;;;5093628;28;20036;-61
2023/10/30 10:35:43;;;;;;;10.75;1.40;;;13.40;99.90;;;;;;5041137;28;20059;-61
2023/10/30 10:38:10;;;;;;;6.10;1.60;;;13.50;99.90;;;;;;5087122;28;20119;-61
2023/10/30 10:40:38;;;;;;;8.13;1.58;;;13.60;99.90;;;;;;5072888;28;20040;-61
2023/10/30 10:43:06;;;;;;;9.68;1.60;;;13.70;99.90;;;;;;5072704;28;20040;-61
2023/10/30 10:45:32;;;;;;;6.20;1.30;;;13.70;99.90;;;;;;5072835;28;20067;-62
2023/10/30 10:47:58;;;;;;;8.88;1.65;;;13.70;99.90;;;;;;5078445;28;20509;-61
2023/10/30 10:50:24;;;;;;;8.55;1.45;;;13.70;99.90;;;;;;5055739;28;20036;-62
2023/10/30 10:52:53;;;;;;;12.30;2.20;;;13.80;99.90;;;;;;5054503;28;20048;-61
2023/10/30 10:55:26;;;;;;;7.90;2.03;;;13.80;99.90;;;;;;5054522;28;20084;-62
2023/10/30 10:58:25;;;;;;;7.75;1.63;;;13.90;99.90;;;;;;5072361;28;20064;-62
2023/10/30 11:00:53;;;;;;;11.10;1.70;;;14.30;99.90;;;;;;5072090;28;20036;-61
2023/10/30 11:03:21;;;;;;;8.40;1.35;;;14.50;99.90;;;;;;5054165;28;20044;-61
2023/10/30 11:05:52;;;;;;;7.68;1.80;;;14.60;99.90;;;;;;5054048;28;20088;-61
2023/10/30 11:08:33;;;;;;;12.10;1.95;;;14.60;99.90;;;;;;5054363;28;20044;-63
2023/10/30 11:11:05;;;;;;;8.68;1.70;;;14.50;99.90;;;;;;5071302;28;20090;-62
2023/10/30 11:13:48;;;;;;;7.65;1.88;;;14.30;99.90;;;;;;5072466;28;20395;-60
2023/10/30 11:16:24;;;;;;;6.55;1.40;;;14.30;99.90;;;;;;5078927;28;20048;-61
2023/10/30 11:18:58;;;;;;;10.35;1.65;;;14.10;99.90;;;;;;5057230;28;20043;-61
2023/10/30 11:21:26;;;;;;;11.70;2.10;;;14.00;99.90;;;;;;5080865;28;20072;-61
2023/10/30 11:23:57;;;;;;;7.85;1.73;;;13.90;99.90;;;;;;5071337;28;20045;-61
2023/10/30 11:26:36;;;;;;;6.75;1.55;;;13.90;99.90;;;;;;5071073;28;20101;-61
2023/10/30 11:29:21;;;;;;;8.93;1.73;;;13.80;99.90;;;;;;5092043;28;20054;-61
2023/10/30 11:31:53;;;;;;;8.98;1.90;;;13.90;99.90;;;;;;5073263;28;20055;-61
2023/10/30 11:34:25;;;;;;;10.98;2.70;;;13.90;99.90;;;;;;5070820;28;20454;-62
2023/10/30 11:36:51;;;;;;;10.32;2.05;;;13.90;99.90;;;;;;5054274;28;20518;-61
2023/10/30 11:39:20;;;;;;;7.38;1.80;;;13.90;99.90;;;;;;5071234;28;20032;-62
2023/10/30 11:41:53;;;;;;;9.23;1.60;;;13.90;99.90;;;;;;5071440;28;20033;-62
2023/10/30 11:44:19;;;;;;;8.02;1.90;;;14.00;99.90;;;;;;5071467;28;20097;-62
2023/10/30 11:46:47;;;;;;;7.85;1.50;;;14.00;99.90;;;;;;5053583;28;20036;-62
2023/10/30 11:49:17;;;;;;;8.45;1.60;;;14.10;99.90;;;;;;5052927;28;20154;-61
2023/10/30 11:51:46;;;;;;;9.48;2.13;;;14.10;99.90;;;;;;5071514;28;20071;-61
2023/10/30 11:54:18;;;;;;;12.07;1.80;;;14.10;99.90;;;;;;5071345;28;20036;-62
2023/10/30 11:56:48;;;;;;;10.13;1.90;;;14.10;99.90;;;;;;5053700;28;20133;-62
2023/10/30 11:59:15;;;;;;;9.65;1.70;;;14.10;99.90;;;;;;5070910;28;20523;-62
2023/10/30 12:01:43;;;;;;;12.02;2.53;;;14.10;99.90;;;;;;5053826;28;20510;-62
2023/10/30 12:04:09;;;;;;;9.05;2.05;;;14.10;99.90;;;;;;5069860;28;20445;-62
2023/10/30 12:06:35;;;;;;;7.57;1.65;;;14.10;99.90;;;;;;5049691;28;22283;-62
2023/10/30 12:09:00;;;;;;;9.27;1.58;;;14.10;99.90;;;;;;5050052;28;20052;-62
2023/10/30 12:11:27;;;;;;;8.80;1.85;;;14.10;99.90;;;;;;5047283;28;20045;-62
2023/10/30 12:13:54;;;;;;;9.70;1.67;;;14.10;99.90;;;;;;5049995;28;20098;-62
2023/10/30 12:16:20;;;;;;;6.80;1.77;;;14.10;99.90;;;;;;5033469;28;20076;-62
2023/10/30 12:18:46;;;;;;;8.52;1.55;;;14.20;99.90;;;;;;5049972;28;20483;-62
2023/10/30 12:21:12;;;;;;;6.03;1.40;;;14.20;99.90;;;;;;5028696;28;20049;-61
2023/10/30 12:23:53;;;;;;;6.72;1.58;;;14.20;99.90;;;;;;5033033;28;20047;-62
2023/10/30 12:26:19;;;;;;;7.70;1.48;;;14.10;99.90;;;;;;5050747;28;20071;-62
2023/10/30 12:28:44;;;;;;;6.65;1.38;;;14.10;99.90;;;;;;5049592;28;20132;-62
2023/10/30 12:31:20;;;;;;;6.25;1.48;;;14.20;99.90;;;;;;5046812;28;20500;-62
2023/10/30 12:33:46;;;;;;;8.20;1.75;;;14.10;99.90;;;;;;5048533;28;20408;-61
2023/10/30 12:36:12;;;;;;;8.52;2.00;;;14.20;99.90;;;;;;5050679;28;20037;-62
2023/10/30 12:38:37;;;;;;;11.38;2.05;;;14.20;99.90;;;;;;5048472;28;20048;-63
2023/10/30 12:41:07;;;;;;;8.20;1.55;;;14.10;99.90;;;;;;5049281;28;20044;-61
2023/10/30 12:43:39;;;;;;;9.38;1.42;;;14.10;99.90;;;;;;5043278;28;20057;-61
2023/10/30 12:46:06;;;;;;;11.52;2.17;;;14.10;99.90;;;;;;5048835;28;20051;-62
2023/10/30 12:48:32;;;;;;;9.35;2.65;;;14.10;99.90;;;;;;5049081;28;20040;-62